sensor_id;sensor_type;location;lat;lon;timestamp;P1;durP1;ratioP1;P2;durP2;ratioP2
12689;SDS011;6409;56.294;14.480;2023-05-07T00:00:47;1.33;;;1.13;;
12689;SDS011;6409;56.294;14.480;2023-05-07T00:03:14;0.80;;;0.80;;
12689;SDS011;6409;56.294;14.480;2023-05-07T00:05:41;1.00;;;1.00;;
12689;SDS011;6409;56.294;14.480;2023-05-07T00:08:10;0.87;;;0.87;;
12689;SDS011;6409;56.294;14.480;2023-05-07T00:10:37;0.90;;;0.80;;
12689;SDS011;6409;56.294;14.480;2023-05-07T00:13:04;0.97;;;0.90;;
12689;SDS011;6409;56.294;14.480;2023-05-07T00:15:31;1.70;;;0.80;;
12689;SDS011;6409;56.294;14.480;2023-05-07T00:17:58;0.60;;;0.60;;
12689;SDS011;6409;56.294;14.480;2023-05-07T00:20:25;5.40;;;1.20;;
12689;SDS011;6409;56.294;14.480;2023-05-07T00:22:52;0.80;;;0.80;;
12689;SDS011;6409;56.294;14.480;2023-05-07T00:25:20;1.20;;;1.10;;
12689;SDS011;6409;56.294;14.480;2023-05-07T00:27:47;0.70;;;0.70;;
12689;SDS011;6409;56.294;14.480;2023-05-07T00:30:14;1.37;;;0.90;;
12689;SDS011;6409;56.294;14.480;2023-05-07T00:32:41;0.70;;;0.70;;
12689;SDS011;6409;56.294;14.480;2023-05-07T00:35:10;1.50;;;1.40;;
12689;SDS011;6409;56.294;14.480;2023-05-07T00:37:37;0.83;;;0.70;;
12689;SDS011;6409;56.294;14.480;2023-05-07T00:40:05;0.80;;;0.80;;
12689;SDS011;6409;56.294;14.480;2023-05-07T00:42:34;1.53;;;0.87;;
12689;SDS011;6409;56.294;14.480;2023-05-07T00:45:02;0.77;;;0.77;;
12689;SDS011;6409;56.294;14.480;2023-05-07T00:47:29;0.73;;;0.63;;
12689;SDS011;6409;56.294;14.480;2023-05-07T00:49:56;0.60;;;0.60;;
12689;SDS011;6409;56.294;14.480;2023-05-07T00:52:23;0.63;;;0.63;;
12689;SDS011;6409;56.294;14.480;2023-05-07T00:54:52;1.03;;;1.00;;
12689;SDS011;6409;56.294;14.480;2023-05-07T00:57:20;0.60;;;0.60;;
12689;SDS011;6409;56.294;14.480;2023-05-07T00:59:48;0.73;;;0.73;;
12689;SDS011;6409;56.294;14.480;2023-05-07T01:02:17;0.87;;;0.87;;
12689;SDS011;6409;56.294;14.480;2023-05-07T01:04:44;0.70;;;0.70;;
12689;SDS011;6409;56.294;14.480;2023-05-07T01:07:11;1.20;;;1.10;;
12689;SDS011;6409;56.294;14.480;2023-05-07T01:09:39;0.93;;;0.80;;
12689;SDS011;6409;56.294;14.480;2023-05-07T01:12:06;0.80;;;0.80;;
12689;SDS011;6409;56.294;14.480;2023-05-07T01:14:33;0.67;;;0.67;;
12689;SDS011;6409;56.294;14.480;2023-05-07T01:17:02;0.67;;;0.67;;
12689;SDS011;6409;56.294;14.480;2023-05-07T01:19:29;1.33;;;1.10;;
12689;SDS011;6409;56.294;14.480;2023-05-07T01:21:59;1.20;;;1.00;;
12689;SDS011;6409;56.294;14.480;2023-05-07T01:24:31;0.60;;;0.60;;
12689;SDS011;6409;56.294;14.480;2023-05-07T01:26:58;0.90;;;0.90;;
12689;SDS011;6409;56.294;14.480;2023-05-07T01:29:26;1.10;;;1.00;;
12689;SDS011;6409;56.294;14.480;2023-05-07T01:31:53;0.77;;;0.77;;
12689;SDS011;6409;56.294;14.480;2023-05-07T01:34:22;0.60;;;0.60;;
12689;SDS011;6409;56.294;14.480;2023-05-07T01:36:49;0.80;;;0.80;;
12689;SDS011;6409;56.294;14.480;2023-05-07T01:39:16;0.67;;;0.67;;
12689;SDS011;6409;56.294;14.480;2023-05-07T01:41:44;0.60;;;0.60;;
12689;SDS011;6409;56.294;14.480;2023-05-07T01:44:12;1.40;;;1.30;;
12689;SDS011;6409;56.294;14.480;2023-05-07T01:46:39;1.20;;;1.10;;
12689;SDS011;6409;56.294;14.480;2023-05-07T01:49:06;0.67;;;0.67;;
12689;SDS011;6409;56.294;14.480;2023-05-07T01:51:33;1.20;;;1.20;;
12689;SDS011;6409;56.294;14.480;2023-05-07T01:54:01;0.73;;;0.73;;
12689;SDS011;6409;56.294;14.480;2023-05-07T01:56:28;0.60;;;0.60;;
12689;SDS011;6409;56.294;14.480;2023-05-07T01:58:56;1.30;;;1.20;;
12689;SDS011;6409;56.294;14.480;2023-05-07T02:01:23;0.70;;;0.70;;
12689;SDS011;6409;56.294;14.480;2023-05-07T02:03:50;0.80;;;0.80;;
12689;SDS011;6409;56.294;14.480;2023-05-07T02:06:18;1.33;;;1.13;;
12689;SDS011;6409;56.294;14.480;2023-05-07T02:08:46;0.53;;;0.53;;
12689;SDS011;6409;56.294;14.480;2023-05-07T02:11:13;0.80;;;0.80;;
12689;SDS011;6409;56.294;14.480;2023-05-07T02:13:41;0.70;;;0.70;;
12689;SDS011;6409;56.294;14.480;2023-05-07T02:16:09;0.60;;;0.60;;
12689;SDS011;6409;56.294;14.480;2023-05-07T02:18:38;0.77;;;0.77;;
12689;SDS011;6409;56.294;14.480;2023-05-07T02:21:05;0.70;;;0.70;;
12689;SDS011;6409;56.294;14.480;2023-05-07T02:23:32;0.80;;;0.80;;
12689;SDS011;6409;56.294;14.480;2023-05-07T02:25:59;0.67;;;0.67;;
12689;SDS011;6409;56.294;14.480;2023-05-07T02:28:26;0.70;;;0.70;;
12689;SDS011;6409;56.294;14.480;2023-05-07T02:30:53;0.60;;;0.53;;
12689;SDS011;6409;56.294;14.480;2023-05-07T02:33:21;4.83;;;0.73;;
12689;SDS011;6409;56.294;14.480;2023-05-07T02:35:48;0.90;;;0.90;;
12689;SDS011;6409;56.294;14.480;2023-05-07T02:38:16;0.70;;;0.70;;
12689;SDS011;6409;56.294;14.480;2023-05-07T02:40:43;0.80;;;0.80;;
12689;SDS011;6409;56.294;14.480;2023-05-07T02:43:10;1.27;;;1.03;;
12689;SDS011;6409;56.294;14.480;2023-05-07T02:45:37;0.90;;;0.90;;
12689;SDS011;6409;56.294;14.480;2023-05-07T02:48:04;0.90;;;0.90;;
12689;SDS011;6409;56.294;14.480;2023-05-07T02:50:33;0.80;;;0.80;;
12689;SDS011;6409;56.294;14.480;2023-05-07T02:53:00;0.50;;;0.50;;
12689;SDS011;6409;56.294;14.480;2023-05-07T02:55:27;0.80;;;0.80;;
12689;SDS011;6409;56.294;14.480;2023-05-07T02:57:54;0.93;;;0.70;;
12689;SDS011;6409;56.294;14.480;2023-05-07T03:00:21;0.80;;;0.80;;
12689;SDS011;6409;56.294;14.480;2023-05-07T03:02:48;0.50;;;0.50;;
12689;SDS011;6409;56.294;14.480;2023-05-07T03:05:15;0.63;;;0.63;;
12689;SDS011;6409;56.294;14.480;2023-05-07T03:07:44;0.70;;;0.70;;
12689;SDS011;6409;56.294;14.480;2023-05-07T03:10:12;0.80;;;0.80;;
12689;SDS011;6409;56.294;14.480;2023-05-07T03:12:39;0.80;;;0.80;;
12689;SDS011;6409;56.294;14.480;2023-05-07T03:15:06;0.77;;;0.77;;
12689;SDS011;6409;56.294;14.480;2023-05-07T03:17:35;0.77;;;0.77;;
12689;SDS011;6409;56.294;14.480;2023-05-07T03:20:02;0.70;;;0.70;;
12689;SDS011;6409;56.294;14.480;2023-05-07T03:22:30;0.90;;;0.90;;
12689;SDS011;6409;56.294;14.480;2023-05-07T03:24:58;0.77;;;0.77;;
12689;SDS011;6409;56.294;14.480;2023-05-07T03:27:25;0.80;;;0.80;;
12689;SDS011;6409;56.294;14.480;2023-05-07T03:29:52;0.83;;;0.83;;
12689;SDS011;6409;56.294;14.480;2023-05-07T03:32:19;0.83;;;0.83;;
12689;SDS011;6409;56.294;14.480;2023-05-07T03:34:46;0.90;;;0.90;;
12689;SDS011;6409;56.294;14.480;2023-05-07T03:37:13;0.80;;;0.80;;
12689;SDS011;6409;56.294;14.480;2023-05-07T03:39:40;0.53;;;0.53;;
12689;SDS011;6409;56.294;14.480;2023-05-07T03:42:08;0.80;;;0.80;;
12689;SDS011;6409;56.294;14.480;2023-05-07T03:44:35;1.03;;;0.80;;
12689;SDS011;6409;56.294;14.480;2023-05-07T03:47:02;1.13;;;0.70;;
12689;SDS011;6409;56.294;14.480;2023-05-07T03:49:29;1.03;;;0.87;;
12689;SDS011;6409;56.294;14.480;2023-05-07T03:51:56;0.80;;;0.80;;
12689;SDS011;6409;56.294;14.480;2023-05-07T03:54:23;0.90;;;0.80;;
12689;SDS011;6409;56.294;14.480;2023-05-07T03:56:50;0.70;;;0.70;;
12689;SDS011;6409;56.294;14.480;2023-05-07T03:59:18;0.60;;;0.60;;
12689;SDS011;6409;56.294;14.480;2023-05-07T04:01:45;0.87;;;0.80;;
12689;SDS011;6409;56.294;14.480;2023-05-07T04:04:12;0.70;;;0.70;;
12689;SDS011;6409;56.294;14.480;2023-05-07T04:06:39;0.90;;;0.90;;
12689;SDS011;6409;56.294;14.480;2023-05-07T04:09:06;0.90;;;0.90;;
12689;SDS011;6409;56.294;14.480;2023-05-07T04:11:33;3.03;;;1.00;;
12689;SDS011;6409;56.294;14.480;2023-05-07T04:14:00;0.87;;;0.87;;
12689;SDS011;6409;56.294;14.480;2023-05-07T04:16:29;0.67;;;0.67;;
12689;SDS011;6409;56.294;14.480;2023-05-07T04:18:56;0.63;;;0.63;;
12689;SDS011;6409;56.294;14.480;2023-05-07T04:21:23;0.73;;;0.73;;
12689;SDS011;6409;56.294;14.480;2023-05-07T04:23:51;0.70;;;0.70;;
12689;SDS011;6409;56.294;14.480;2023-05-07T04:26:18;1.20;;;1.10;;
12689;SDS011;6409;56.294;14.480;2023-05-07T04:28:46;0.73;;;0.73;;
12689;SDS011;6409;56.294;14.480;2023-05-07T04:31:13;0.80;;;0.80;;
12689;SDS011;6409;56.294;14.480;2023-05-07T04:33:41;1.27;;;1.03;;
12689;SDS011;6409;56.294;14.480;2023-05-07T04:36:08;0.83;;;0.83;;
12689;SDS011;6409;56.294;14.480;2023-05-07T04:38:35;1.00;;;1.00;;
12689;SDS011;6409;56.294;14.480;2023-05-07T04:41:04;0.70;;;0.70;;
12689;SDS011;6409;56.294;14.480;2023-05-07T04:43:31;1.20;;;1.10;;
12689;SDS011;6409;56.294;14.480;2023-05-07T04:45:58;3.87;;;0.87;;
12689;SDS011;6409;56.294;14.480;2023-05-07T04:48:25;0.70;;;0.70;;
12689;SDS011;6409;56.294;14.480;2023-05-07T04:50:55;1.00;;;0.77;;
12689;SDS011;6409;56.294;14.480;2023-05-07T04:53:22;0.90;;;0.90;;
12689;SDS011;6409;56.294;14.480;2023-05-07T04:55:48;0.70;;;0.70;;
12689;SDS011;6409;56.294;14.480;2023-05-07T04:58:20;1.20;;;1.10;;
12689;SDS011;6409;56.294;14.480;2023-05-07T05:00:47;1.53;;;1.20;;
12689;SDS011;6409;56.294;14.480;2023-05-07T05:03:14;3.03;;;1.00;;
12689;SDS011;6409;56.294;14.480;2023-05-07T05:05:41;0.97;;;0.97;;
12689;SDS011;6409;56.294;14.480;2023-05-07T05:08:09;1.27;;;1.03;;
12689;SDS011;6409;56.294;14.480;2023-05-07T05:10:36;6.70;;;1.20;;
12689;SDS011;6409;56.294;14.480;2023-05-07T05:13:03;1.37;;;1.13;;
12689;SDS011;6409;56.294;14.480;2023-05-07T05:15:30;1.10;;;1.10;;
12689;SDS011;6409;56.294;14.480;2023-05-07T05:17:57;2.30;;;1.30;;
12689;SDS011;6409;56.294;14.480;2023-05-07T05:20:24;1.10;;;1.10;;
12689;SDS011;6409;56.294;14.480;2023-05-07T05:22:51;1.67;;;1.17;;
12689;SDS011;6409;56.294;14.480;2023-05-07T05:25:19;1.33;;;1.23;;
12689;SDS011;6409;56.294;14.480;2023-05-07T05:27:46;1.50;;;1.40;;
12689;SDS011;6409;56.294;14.480;2023-05-07T05:30:13;6.93;;;1.70;;
12689;SDS011;6409;56.294;14.480;2023-05-07T05:32:40;1.90;;;1.73;;
12689;SDS011;6409;56.294;14.480;2023-05-07T05:35:08;1.80;;;1.70;;
12689;SDS011;6409;56.294;14.480;2023-05-07T05:37:35;1.20;;;1.20;;
12689;SDS011;6409;56.294;14.480;2023-05-07T05:40:02;2.73;;;1.50;;
12689;SDS011;6409;56.294;14.480;2023-05-07T05:42:31;1.37;;;1.30;;
12689;SDS011;6409;56.294;14.480;2023-05-07T05:44:57;1.53;;;1.53;;
12689;SDS011;6409;56.294;14.480;2023-05-07T05:47:24;1.80;;;1.70;;
12689;SDS011;6409;56.294;14.480;2023-05-07T05:49:51;1.53;;;1.53;;
12689;SDS011;6409;56.294;14.480;2023-05-07T05:52:18;1.90;;;1.80;;
12689;SDS011;6409;56.294;14.480;2023-05-07T05:54:48;1.70;;;1.40;;
12689;SDS011;6409;56.294;14.480;2023-05-07T05:57:15;1.40;;;1.30;;
12689;SDS011;6409;56.294;14.480;2023-05-07T05:59:43;1.80;;;1.70;;
12689;SDS011;6409;56.294;14.480;2023-05-07T06:02:11;7.27;;;2.00;;
12689;SDS011;6409;56.294;14.480;2023-05-07T06:04:38;4.37;;;1.70;;
12689;SDS011;6409;56.294;14.480;2023-05-07T06:07:05;1.93;;;1.40;;
12689;SDS011;6409;56.294;14.480;2023-05-07T06:09:32;1.40;;;1.40;;
12689;SDS011;6409;56.294;14.480;2023-05-07T06:11:59;1.60;;;1.50;;
12689;SDS011;6409;56.294;14.480;2023-05-07T06:14:26;1.50;;;1.50;;
12689;SDS011;6409;56.294;14.480;2023-05-07T06:16:54;1.57;;;1.47;;
12689;SDS011;6409;56.294;14.480;2023-05-07T06:19:21;1.70;;;1.60;;
12689;SDS011;6409;56.294;14.480;2023-05-07T06:21:49;1.60;;;1.50;;
12689;SDS011;6409;56.294;14.480;2023-05-07T06:24:16;1.97;;;1.70;;
12689;SDS011;6409;56.294;14.480;2023-05-07T06:26:42;10.63;;;2.00;;
12689;SDS011;6409;56.294;14.480;2023-05-07T06:29:09;1.60;;;1.60;;
12689;SDS011;6409;56.294;14.480;2023-05-07T06:31:36;1.70;;;1.60;;
12689;SDS011;6409;56.294;14.480;2023-05-07T06:34:05;2.00;;;1.80;;
12689;SDS011;6409;56.294;14.480;2023-05-07T06:36:31;2.23;;;1.80;;
12689;SDS011;6409;56.294;14.480;2023-05-07T06:38:58;2.00;;;1.90;;
12689;SDS011;6409;56.294;14.480;2023-05-07T06:41:25;2.47;;;1.90;;
12689;SDS011;6409;56.294;14.480;2023-05-07T06:43:52;2.07;;;1.97;;
12689;SDS011;6409;56.294;14.480;2023-05-07T06:46:19;2.00;;;1.90;;
12689;SDS011;6409;56.294;14.480;2023-05-07T06:48:46;2.00;;;1.90;;
12689;SDS011;6409;56.294;14.480;2023-05-07T06:51:14;5.07;;;2.40;;
12689;SDS011;6409;56.294;14.480;2023-05-07T06:53:41;2.53;;;2.13;;
12689;SDS011;6409;56.294;14.480;2023-05-07T06:56:08;2.97;;;2.73;;
12689;SDS011;6409;56.294;14.480;2023-05-07T06:58:35;3.67;;;2.30;;
12689;SDS011;6409;56.294;14.480;2023-05-07T07:01:03;2.87;;;2.20;;
12689;SDS011;6409;56.294;14.480;2023-05-07T07:03:30;2.60;;;2.40;;
12689;SDS011;6409;56.294;14.480;2023-05-07T07:05:57;2.67;;;2.47;;
12689;SDS011;6409;56.294;14.480;2023-05-07T07:08:25;13.10;;;2.50;;
12689;SDS011;6409;56.294;14.480;2023-05-07T07:10:53;3.70;;;2.60;;
12689;SDS011;6409;56.294;14.480;2023-05-07T07:13:20;3.27;;;2.50;;
12689;SDS011;6409;56.294;14.480;2023-05-07T07:15:47;2.60;;;2.40;;
12689;SDS011;6409;56.294;14.480;2023-05-07T07:18:14;2.70;;;2.50;;
12689;SDS011;6409;56.294;14.480;2023-05-07T07:20:41;3.00;;;2.80;;
12689;SDS011;6409;56.294;14.480;2023-05-07T07:23:09;2.53;;;2.37;;
12689;SDS011;6409;56.294;14.480;2023-05-07T07:25:37;5.73;;;2.40;;
12689;SDS011;6409;56.294;14.480;2023-05-07T07:28:04;6.33;;;3.03;;
12689;SDS011;6409;56.294;14.480;2023-05-07T07:30:31;3.47;;;3.13;;
12689;SDS011;6409;56.294;14.480;2023-05-07T07:32:58;2.80;;;2.60;;
12689;SDS011;6409;56.294;14.480;2023-05-07T07:35:28;3.97;;;2.97;;
12689;SDS011;6409;56.294;14.480;2023-05-07T07:37:55;3.23;;;2.97;;
12689;SDS011;6409;56.294;14.480;2023-05-07T07:40:22;2.80;;;2.60;;
12689;SDS011;6409;56.294;14.480;2023-05-07T07:42:51;3.13;;;2.93;;
12689;SDS011;6409;56.294;14.480;2023-05-07T07:45:19;3.17;;;2.97;;
12689;SDS011;6409;56.294;14.480;2023-05-07T07:47:46;7.83;;;3.30;;
12689;SDS011;6409;56.294;14.480;2023-05-07T07:50:13;3.77;;;3.33;;
12689;SDS011;6409;56.294;14.480;2023-05-07T07:52:40;3.20;;;3.00;;
12689;SDS011;6409;56.294;14.480;2023-05-07T07:55:07;3.07;;;2.93;;
12689;SDS011;6409;56.294;14.480;2023-05-07T07:57:35;3.77;;;3.47;;
12689;SDS011;6409;56.294;14.480;2023-05-07T08:00:03;3.60;;;3.30;;
12689;SDS011;6409;56.294;14.480;2023-05-07T08:02:32;3.60;;;3.30;;
12689;SDS011;6409;56.294;14.480;2023-05-07T08:04:59;3.93;;;3.60;;
12689;SDS011;6409;56.294;14.480;2023-05-07T08:07:26;3.40;;;3.20;;
12689;SDS011;6409;56.294;14.480;2023-05-07T08:09:53;3.60;;;3.40;;
12689;SDS011;6409;56.294;14.480;2023-05-07T08:12:20;5.07;;;4.10;;
12689;SDS011;6409;56.294;14.480;2023-05-07T08:14:47;3.20;;;3.10;;
12689;SDS011;6409;56.294;14.480;2023-05-07T08:17:15;3.90;;;3.60;;
12689;SDS011;6409;56.294;14.480;2023-05-07T08:19:42;4.13;;;3.67;;
12689;SDS011;6409;56.294;14.480;2023-05-07T08:22:09;4.37;;;3.97;;
12689;SDS011;6409;56.294;14.480;2023-05-07T08:24:37;4.10;;;3.73;;
12689;SDS011;6409;56.294;14.480;2023-05-07T08:27:03;4.07;;;3.77;;
12689;SDS011;6409;56.294;14.480;2023-05-07T08:29:30;3.83;;;3.53;;
12689;SDS011;6409;56.294;14.480;2023-05-07T08:31:57;7.57;;;3.70;;
12689;SDS011;6409;56.294;14.480;2023-05-07T08:34:26;7.00;;;3.77;;
12689;SDS011;6409;56.294;14.480;2023-05-07T08:36:53;6.10;;;3.53;;
12689;SDS011;6409;56.294;14.480;2023-05-07T08:39:20;3.90;;;3.70;;
12689;SDS011;6409;56.294;14.480;2023-05-07T08:41:48;4.43;;;3.80;;
12689;SDS011;6409;56.294;14.480;2023-05-07T08:44:15;4.00;;;3.80;;
12689;SDS011;6409;56.294;14.480;2023-05-07T08:46:43;3.93;;;3.63;;
12689;SDS011;6409;56.294;14.480;2023-05-07T08:49:13;4.00;;;3.70;;
12689;SDS011;6409;56.294;14.480;2023-05-07T08:51:42;4.17;;;3.87;;
12689;SDS011;6409;56.294;14.480;2023-05-07T08:54:09;3.67;;;3.47;;
12689;SDS011;6409;56.294;14.480;2023-05-07T08:56:37;3.67;;;3.47;;
12689;SDS011;6409;56.294;14.480;2023-05-07T08:59:05;4.60;;;4.30;;
12689;SDS011;6409;56.294;14.480;2023-05-07T09:01:32;6.00;;;4.00;;
12689;SDS011;6409;56.294;14.480;2023-05-07T09:04:01;5.97;;;3.90;;
12689;SDS011;6409;56.294;14.480;2023-05-07T09:06:28;4.90;;;4.37;;
12689;SDS011;6409;56.294;14.480;2023-05-07T09:08:56;4.40;;;4.10;;
12689;SDS011;6409;56.294;14.480;2023-05-07T09:11:26;4.00;;;3.73;;
12689;SDS011;6409;56.294;14.480;2023-05-07T09:13:53;4.10;;;3.80;;
12689;SDS011;6409;56.294;14.480;2023-05-07T09:16:21;7.83;;;4.40;;
12689;SDS011;6409;56.294;14.480;2023-05-07T09:18:50;4.70;;;4.30;;
12689;SDS011;6409;56.294;14.480;2023-05-07T09:21:18;4.90;;;4.50;;
12689;SDS011;6409;56.294;14.480;2023-05-07T09:23:45;5.80;;;4.50;;
12689;SDS011;6409;56.294;14.480;2023-05-07T09:26:13;9.97;;;4.70;;
12689;SDS011;6409;56.294;14.480;2023-05-07T09:28:41;4.97;;;4.50;;
12689;SDS011;6409;56.294;14.480;2023-05-07T09:31:08;4.70;;;4.40;;
12689;SDS011;6409;56.294;14.480;2023-05-07T09:33:35;5.00;;;4.60;;
12689;SDS011;6409;56.294;14.480;2023-05-07T09:36:02;4.87;;;4.50;;
12689;SDS011;6409;56.294;14.480;2023-05-07T09:38:30;5.00;;;4.60;;
12689;SDS011;6409;56.294;14.480;2023-05-07T09:41:04;4.80;;;4.40;;
12689;SDS011;6409;56.294;14.480;2023-05-07T09:43:34;4.77;;;4.47;;
12689;SDS011;6409;56.294;14.480;2023-05-07T09:46:06;4.67;;;4.27;;
12689;SDS011;6409;56.294;14.480;2023-05-07T09:48:37;5.20;;;4.80;;
12689;SDS011;6409;56.294;14.480;2023-05-07T09:51:06;4.70;;;4.17;;
12689;SDS011;6409;56.294;14.480;2023-05-07T09:53:40;4.57;;;4.17;;
12689;SDS011;6409;56.294;14.480;2023-05-07T09:56:07;4.90;;;4.50;;
12689;SDS011;6409;56.294;14.480;2023-05-07T09:58:37;5.57;;;5.10;;
12689;SDS011;6409;56.294;14.480;2023-05-07T10:01:05;4.50;;;4.10;;
12689;SDS011;6409;56.294;14.480;2023-05-07T10:03:32;4.43;;;4.13;;
12689;SDS011;6409;56.294;14.480;2023-05-07T10:06:00;4.47;;;4.10;;
12689;SDS011;6409;56.294;14.480;2023-05-07T10:08:27;4.93;;;4.27;;
12689;SDS011;6409;56.294;14.480;2023-05-07T10:10:55;4.70;;;4.40;;
12689;SDS011;6409;56.294;14.480;2023-05-07T10:13:22;4.40;;;4.10;;
12689;SDS011;6409;56.294;14.480;2023-05-07T10:15:51;4.63;;;4.33;;
12689;SDS011;6409;56.294;14.480;2023-05-07T10:18:18;4.90;;;4.40;;
12689;SDS011;6409;56.294;14.480;2023-05-07T10:20:48;16.53;;;4.37;;
12689;SDS011;6409;56.294;14.480;2023-05-07T10:23:17;5.27;;;4.77;;
12689;SDS011;6409;56.294;14.480;2023-05-07T10:25:48;4.80;;;4.40;;
12689;SDS011;6409;56.294;14.480;2023-05-07T10:28:15;4.60;;;4.30;;
12689;SDS011;6409;56.294;14.480;2023-05-07T10:30:46;4.43;;;4.13;;
12689;SDS011;6409;56.294;14.480;2023-05-07T10:33:21;6.07;;;4.87;;
12689;SDS011;6409;56.294;14.480;2023-05-07T10:35:52;4.80;;;4.43;;
12689;SDS011;6409;56.294;14.480;2023-05-07T10:38:22;4.60;;;4.30;;
12689;SDS011;6409;56.294;14.480;2023-05-07T10:40:50;4.93;;;4.27;;
12689;SDS011;6409;56.294;14.480;2023-05-07T10:43:17;4.70;;;4.40;;
12689;SDS011;6409;56.294;14.480;2023-05-07T10:45:45;7.90;;;4.17;;
12689;SDS011;6409;56.294;14.480;2023-05-07T10:51:32;6.43;;;4.20;;
12689;SDS011;6409;56.294;14.480;2023-05-07T10:56:53;4.37;;;4.07;;
12689;SDS011;6409;56.294;14.480;2023-05-07T10:59:30;4.70;;;4.33;;
12689;SDS011;6409;56.294;14.480;2023-05-07T11:02:00;4.30;;;4.00;;
12689;SDS011;6409;56.294;14.480;2023-05-07T11:04:29;4.40;;;4.10;;
12689;SDS011;6409;56.294;14.480;2023-05-07T11:12:49;4.50;;;4.20;;
12689;SDS011;6409;56.294;14.480;2023-05-07T11:18:16;4.50;;;4.20;;
12689;SDS011;6409;56.294;14.480;2023-05-07T11:20:44;4.53;;;4.23;;
12689;SDS011;6409;56.294;14.480;2023-05-07T11:26:14;4.30;;;4.00;;
12689;SDS011;6409;56.294;14.480;2023-05-07T11:28:42;4.63;;;4.33;;
12689;SDS011;6409;56.294;14.480;2023-05-07T11:31:10;4.40;;;4.10;;
12689;SDS011;6409;56.294;14.480;2023-05-07T11:33:38;4.47;;;4.07;;
12689;SDS011;6409;56.294;14.480;2023-05-07T11:36:07;4.40;;;4.00;;
12689;SDS011;6409;56.294;14.480;2023-05-07T11:38:35;4.53;;;4.13;;
12689;SDS011;6409;56.294;14.480;2023-05-07T11:41:02;5.83;;;4.20;;
12689;SDS011;6409;56.294;14.480;2023-05-07T11:43:30;11.93;;;4.10;;
12689;SDS011;6409;56.294;14.480;2023-05-07T11:46:04;4.20;;;3.80;;
12689;SDS011;6409;56.294;14.480;2023-05-07T11:48:31;3.70;;;3.40;;
12689;SDS011;6409;56.294;14.480;2023-05-07T11:51:01;4.27;;;3.90;;
12689;SDS011;6409;56.294;14.480;2023-05-07T11:53:34;3.90;;;3.60;;
12689;SDS011;6409;56.294;14.480;2023-05-07T11:56:05;4.80;;;4.30;;
12689;SDS011;6409;56.294;14.480;2023-05-07T11:58:33;3.97;;;3.70;;
12689;SDS011;6409;56.294;14.480;2023-05-07T12:00:59;4.07;;;3.77;;
12689;SDS011;6409;56.294;14.480;2023-05-07T12:03:26;4.30;;;4.00;;
12689;SDS011;6409;56.294;14.480;2023-05-07T12:05:53;4.37;;;4.00;;
12689;SDS011;6409;56.294;14.480;2023-05-07T12:08:22;4.23;;;3.90;;
12689;SDS011;6409;56.294;14.480;2023-05-07T12:10:49;4.67;;;4.10;;
12689;SDS011;6409;56.294;14.480;2023-05-07T12:13:17;4.17;;;3.90;;
12689;SDS011;6409;56.294;14.480;2023-05-07T12:15:44;4.87;;;3.80;;
12689;SDS011;6409;56.294;14.480;2023-05-07T12:18:12;4.27;;;3.97;;
12689;SDS011;6409;56.294;14.480;2023-05-07T12:20:39;4.13;;;3.83;;
12689;SDS011;6409;56.294;14.480;2023-05-07T12:23:06;4.10;;;3.80;;
12689;SDS011;6409;56.294;14.480;2023-05-07T12:25:51;3.70;;;3.40;;
12689;SDS011;6409;56.294;14.480;2023-05-07T12:28:19;4.10;;;3.80;;
12689;SDS011;6409;56.294;14.480;2023-05-07T12:30:46;4.00;;;3.80;;
12689;SDS011;6409;56.294;14.480;2023-05-07T12:33:16;5.17;;;3.63;;
12689;SDS011;6409;56.294;14.480;2023-05-07T12:35:43;4.10;;;3.80;;
12689;SDS011;6409;56.294;14.480;2023-05-07T12:38:11;4.10;;;3.70;;
12689;SDS011;6409;56.294;14.480;2023-05-07T12:40:39;3.80;;;3.60;;
12689;SDS011;6409;56.294;14.480;2023-05-07T12:43:09;4.50;;;4.20;;
12689;SDS011;6409;56.294;14.480;2023-05-07T12:45:42;3.57;;;3.37;;
12689;SDS011;6409;56.294;14.480;2023-05-07T12:48:10;5.40;;;4.00;;
12689;SDS011;6409;56.294;14.480;2023-05-07T12:50:37;4.20;;;3.90;;
12689;SDS011;6409;56.294;14.480;2023-05-07T12:53:04;4.17;;;3.77;;
12689;SDS011;6409;56.294;14.480;2023-05-07T12:55:34;4.23;;;3.93;;
12689;SDS011;6409;56.294;14.480;2023-05-07T12:58:09;4.43;;;4.10;;
12689;SDS011;6409;56.294;14.480;2023-05-07T13:00:42;4.57;;;4.17;;
12689;SDS011;6409;56.294;14.480;2023-05-07T13:03:09;4.17;;;3.87;;
12689;SDS011;6409;56.294;14.480;2023-05-07T13:05:36;4.40;;;4.00;;
12689;SDS011;6409;56.294;14.480;2023-05-07T13:08:04;4.33;;;4.00;;
12689;SDS011;6409;56.294;14.480;2023-05-07T13:10:30;6.03;;;3.80;;
12689;SDS011;6409;56.294;14.480;2023-05-07T13:12:59;4.00;;;3.77;;
12689;SDS011;6409;56.294;14.480;2023-05-07T13:15:27;3.80;;;3.60;;
12689;SDS011;6409;56.294;14.480;2023-05-07T13:17:54;4.20;;;3.90;;
12689;SDS011;6409;56.294;14.480;2023-05-07T13:20:21;4.17;;;3.67;;
12689;SDS011;6409;56.294;14.480;2023-05-07T13:22:49;3.90;;;3.60;;
12689;SDS011;6409;56.294;14.480;2023-05-07T13:25:16;4.40;;;4.10;;
12689;SDS011;6409;56.294;14.480;2023-05-07T13:27:43;4.03;;;3.70;;
12689;SDS011;6409;56.294;14.480;2023-05-07T13:30:10;4.50;;;4.20;;
12689;SDS011;6409;56.294;14.480;2023-05-07T13:32:38;3.83;;;3.63;;
12689;SDS011;6409;56.294;14.480;2023-05-07T13:35:06;4.00;;;3.70;;
12689;SDS011;6409;56.294;14.480;2023-05-07T13:37:33;4.10;;;3.70;;
12689;SDS011;6409;56.294;14.480;2023-05-07T13:40:00;3.87;;;3.67;;
12689;SDS011;6409;56.294;14.480;2023-05-07T13:42:27;6.93;;;4.10;;
12689;SDS011;6409;56.294;14.480;2023-05-07T13:44:55;4.23;;;3.80;;
12689;SDS011;6409;56.294;14.480;2023-05-07T13:47:22;4.10;;;3.70;;
12689;SDS011;6409;56.294;14.480;2023-05-07T13:49:51;4.03;;;3.60;;
12689;SDS011;6409;56.294;14.480;2023-05-07T13:52:18;5.27;;;3.60;;
12689;SDS011;6409;56.294;14.480;2023-05-07T13:54:45;5.47;;;3.90;;
12689;SDS011;6409;56.294;14.480;2023-05-07T13:57:12;3.73;;;3.50;;
12689;SDS011;6409;56.294;14.480;2023-05-07T13:59:40;4.30;;;3.90;;
12689;SDS011;6409;56.294;14.480;2023-05-07T14:02:07;3.80;;;3.60;;
12689;SDS011;6409;56.294;14.480;2023-05-07T14:04:34;4.40;;;4.10;;
12689;SDS011;6409;56.294;14.480;2023-05-07T14:07:03;3.83;;;3.53;;
12689;SDS011;6409;56.294;14.480;2023-05-07T14:09:30;3.73;;;3.50;;
12689;SDS011;6409;56.294;14.480;2023-05-07T14:11:58;3.43;;;3.13;;
12689;SDS011;6409;56.294;14.480;2023-05-07T14:14:26;4.53;;;3.40;;
12689;SDS011;6409;56.294;14.480;2023-05-07T14:16:53;3.80;;;3.60;;
12689;SDS011;6409;56.294;14.480;2023-05-07T14:19:20;4.37;;;3.40;;
12689;SDS011;6409;56.294;14.480;2023-05-07T14:21:48;3.63;;;3.40;;
12689;SDS011;6409;56.294;14.480;2023-05-07T14:24:16;4.07;;;3.87;;
12689;SDS011;6409;56.294;14.480;2023-05-07T14:26:43;3.67;;;3.47;;
12689;SDS011;6409;56.294;14.480;2023-05-07T14:29:11;4.10;;;3.80;;
12689;SDS011;6409;56.294;14.480;2023-05-07T14:31:38;3.73;;;3.53;;
12689;SDS011;6409;56.294;14.480;2023-05-07T14:34:04;3.53;;;3.40;;
12689;SDS011;6409;56.294;14.480;2023-05-07T14:36:31;3.83;;;3.60;;
12689;SDS011;6409;56.294;14.480;2023-05-07T14:38:58;3.33;;;3.20;;
12689;SDS011;6409;56.294;14.480;2023-05-07T14:41:27;3.80;;;3.60;;
12689;SDS011;6409;56.294;14.480;2023-05-07T14:43:54;3.90;;;3.60;;
12689;SDS011;6409;56.294;14.480;2023-05-07T14:46:21;3.60;;;3.40;;
12689;SDS011;6409;56.294;14.480;2023-05-07T14:48:49;3.70;;;3.50;;
12689;SDS011;6409;56.294;14.480;2023-05-07T14:51:15;3.73;;;3.53;;
12689;SDS011;6409;56.294;14.480;2023-05-07T14:53:42;3.57;;;3.37;;
12689;SDS011;6409;56.294;14.480;2023-05-07T14:56:10;3.80;;;3.40;;
12689;SDS011;6409;56.294;14.480;2023-05-07T14:58:38;3.17;;;3.00;;
12689;SDS011;6409;56.294;14.480;2023-05-07T15:01:05;3.57;;;3.30;;
12689;SDS011;6409;56.294;14.480;2023-05-07T15:03:32;3.40;;;3.10;;
12689;SDS011;6409;56.294;14.480;2023-05-07T15:05:59;3.17;;;2.97;;
12689;SDS011;6409;56.294;14.480;2023-05-07T15:08:26;5.23;;;3.13;;